Time;durP1;ratioP1;P1;durP2;ratioP2;P2;SDS_P1;SDS_P2;PMS_P1;PMS_P2;Temp;Humidity;BMP_temperature;BMP_pressure;BME280_temperature;BME280_humidity;BME280_pressure;Samples;Min_cycle;Max_cycle;Signal;HPM_P1;HPM_P2
2022/07/05 00:01:06;;;;;;;6.05;2.00;;;;;;;26.56;48.56;99822.22;4462811;32;33481;-75
2022/07/05 00:03:34;;;;;;;7.40;2.20;;;;;;;26.60;49.11;99829.28;4461182;32;33988;-80
2022/07/05 00:06:02;;;;;;;5.22;2.17;;;;;;;26.54;49.48;99827.59;4462292;32;33859;-78
2022/07/05 00:08:29;;;;;;;4.47;1.60;;;;;;;26.27;50.39;99829.00;4465273;32;33669;-78
2022/07/05 00:10:57;;;;;;;4.00;1.75;;;;;;;26.09;51.00;99831.06;4468305;32;33771;-76
2022/07/05 00:13:24;;;;;;;3.00;1.50;;;;;;;26.26;50.77;99824.59;4468153;32;33807;-76
2022/07/05 00:15:52;;;;;;;4.05;1.87;;;;;;;26.46;50.29;99818.87;4463648;32;33990;-76
2022/07/05 00:18:20;;;;;;;5.95;1.95;;;;;;;26.04;51.06;99809.06;4445246;32;34056;-79
2022/07/05 00:20:47;;;;;;;3.55;1.70;;;;;;;26.03;51.52;99796.69;4466231;32;34053;-77
2022/07/05 00:23:15;;;;;;;3.30;2.00;;;;;;;26.01;51.36;99787.00;4464430;32;34156;-78
2022/07/05 00:25:42;;;;;;;2.47;1.45;;;;;;;25.84;51.72;99784.62;4465325;32;33823;-77
2022/07/05 00:28:10;;;;;;;3.78;1.90;;;;;;;25.72;51.71;99776.88;4461854;32;33891;-78
2022/07/05 00:30:38;;;;;;;6.53;2.08;;;;;;;25.60;51.62;99776.19;4461508;32;34647;-78
2022/07/05 00:33:05;;;;;;;4.85;1.92;;;;;;;25.80;51.54;99780.28;4457762;32;34176;-75
2022/07/05 00:35:33;;;;;;;2.85;1.67;;;;;;;25.97;51.03;99770.25;4434648;32;33277;-79
2022/07/05 00:38:01;;;;;;;5.43;1.80;;;;;;;26.15;50.49;99765.50;4449324;32;34511;-76
2022/07/05 00:40:28;;;;;;;4.47;1.73;;;;;;;26.19;50.47;99769.84;4456689;32;32442;-75
2022/07/05 00:42:56;;;;;;;4.07;1.65;;;;;;;26.16;50.58;99777.88;4458000;32;33481;-76
2022/07/05 00:45:24;;;;;;;2.85;1.67;;;;;;;26.15;50.31;99773.47;4458270;32;33572;-79
2022/07/05 00:47:52;;;;;;;5.62;1.83;;;;;;;26.05;50.69;99772.78;4447947;32;33605;-78
2022/07/05 00:50:20;;;;;;;2.90;1.67;;;;;;;26.13;50.54;99769.97;4457025;32;34517;-80
2022/07/05 00:52:47;;;;;;;4.68;1.73;;;;;;;26.04;50.45;99766.59;4448070;32;32753;-78
2022/07/05 00:55:15;;;;;;;2.35;1.55;;;;;;;26.26;49.62;99767.03;4435944;32;33810;-75
2022/07/05 00:57:43;;;;;;;2.87;1.65;;;;;;;26.26;49.54;99771.47;4458520;32;34033;-80
2022/07/05 01:00:11;;;;;;;4.30;1.83;;;;;;;26.19;49.73;99773.41;4462182;32;33610;-74
2022/07/05 01:02:38;;;;;;;2.70;1.52;;;;;;;25.73;51.30;99779.53;4450480;32;33880;-76
2022/07/05 01:05:06;;;;;;;2.53;1.60;;;;;;;26.13;49.96;99777.94;4459525;32;33993;-78
2022/07/05 01:07:34;;;;;;;4.47;1.83;;;;;;;26.24;49.39;99773.28;4451834;32;34904;-78
2022/07/05 01:10:02;;;;;;;4.18;1.75;;;;;;;26.13;50.35;99769.97;4446009;32;33986;-76
2022/07/05 01:12:30;;;;;;;3.83;1.60;;;;;;;26.42;49.07;99778.22;4462453;32;33560;-74
2022/07/05 01:14:58;;;;;;;2.85;1.58;;;;;;;26.41;48.43;99771.16;4445241;32;33938;-76
2022/07/05 01:17:27;;;;;;;3.03;1.58;;;;;;;26.45;47.84;99772.84;4460911;32;34239;-76
2022/07/05 01:19:54;;;;;;;4.07;1.70;;;;;;;26.15;48.56;99776.12;4463339;32;33606;-76
2022/07/05 01:22:26;;;;;;;3.25;1.60;;;;;;;26.50;47.28;99764.78;4465625;32;33565;-76
2022/07/05 01:24:54;;;;;;;3.37;1.37;;;;;;;26.17;47.66;99771.66;4463168;32;33429;-76
2022/07/05 01:27:22;;;;;;;2.55;1.50;;;;;;;25.98;47.34;99761.41;4452096;32;34475;-75
2022/07/05 01:29:49;;;;;;;4.68;1.45;;;;;;;25.62;48.00;99753.16;4466892;32;34185;-77
2022/07/05 01:32:17;;;;;;;3.28;1.50;;;;;;;26.12;45.72;99754.97;4458087;32;34023;-77
2022/07/05 01:34:45;;;;;;;2.50;1.48;;;;;;;25.96;45.88;99752.59;4444215;32;33586;-74
2022/07/05 01:37:13;;;;;;;2.40;1.30;;;;;;;26.16;45.31;99751.34;4459010;32;34815;-80
2022/07/05 01:39:41;;;;;;;2.50;1.40;;;;;;;25.73;46.40;99750.34;4454157;32;34704;-77
2022/07/05 01:42:08;;;;;;;2.05;1.20;;;;;;;26.15;45.27;99758.41;4449276;32;33490;-76
2022/07/05 01:44:36;;;;;;;7.82;1.45;;;;;;;26.15;45.09;99750.44;4462795;32;34400;-77
2022/07/05 01:47:07;;;;;;;4.85;1.65;;;;;;;26.48;44.51;99754.22;4446905;32;33957;-79
2022/07/05 01:49:38;;;;;;;3.85;1.60;;;;;;;26.23;44.62;99747.63;4460740;32;34654;-77
2022/07/05 01:52:10;;;;;;;2.50;1.30;;;;;;;26.07;45.20;99753.25;4462367;32;33357;-75
2022/07/05 01:54:38;;;;;;;3.12;1.30;;;;;;;26.33;44.13;99749.22;4460421;32;33930;-78
2022/07/05 01:57:07;;;;;;;3.05;1.12;;;;;;;26.56;43.87;99748.72;4455494;32;34042;-78
2022/07/05 01:59:36;;;;;;;3.72;1.52;;;;;;;26.76;43.31;99745.66;4459294;32;33864;-76
2022/07/05 02:02:04;;;;;;;2.40;1.50;;;;;;;26.65;43.38;99759.16;4461025;32;34066;-75
2022/07/05 02:04:34;;;;;;;3.28;1.30;;;;;;;26.62;43.56;99753.06;4459831;32;33830;-77
2022/07/05 02:07:06;;;;;;;4.00;1.42;;;;;;;26.60;43.82;99765.50;4463931;32;34969;-78
2022/07/05 02:09:34;;;;;;;2.10;1.55;;;;;;;26.19;44.88;99761.88;4463620;32;33764;-79
2022/07/05 02:12:03;;;;;;;2.22;1.15;;;;;;;26.88;43.47;99763.97;4463396;32;33435;-77
2022/07/05 02:14:32;;;;;;;4.57;1.50;;;;;;;26.37;44.75;99758.88;4466180;32;33836;-76
2022/07/05 02:17:00;;;;;;;2.53;1.58;;;;;;;26.99;43.72;99755.75;4461428;32;34783;-78
2022/07/05 02:19:28;;;;;;;2.80;1.67;;;;;;;27.03;43.28;99754.78;4462347;32;33814;-77
2022/07/05 02:21:56;;;;;;;3.25;1.67;;;;;;;26.47;44.33;99748.91;4463863;32;33452;-77
2022/07/05 02:24:24;;;;;;;2.83;1.42;;;;;;;25.82;46.02;99743.97;4461369;32;34758;-78
2022/07/05 02:26:53;;;;;;;3.28;1.45;;;;;;;26.01;45.70;99739.22;4444920;32;34823;-77
2022/07/05 02:29:21;;;;;;;4.00;1.40;;;;;;;26.35;44.75;99728.81;4458043;32;33171;-76
2022/07/05 02:31:48;;;;;;;2.90;1.45;;;;;;;26.23;45.45;99734.34;4459666;32;33367;-77
2022/07/05 02:34:17;;;;;;;4.15;1.48;;;;;;;26.61;44.38;99740.69;4458038;32;33794;-78
2022/07/05 02:36:45;;;;;;;3.42;1.70;;;;;;;26.64;44.45;99751.25;4461501;32;34458;-79
2022/07/05 02:39:13;;;;;;;3.40;1.40;;;;;;;25.91;46.37;99746.50;4458395;32;33525;-78
2022/07/05 02:41:40;;;;;;;4.37;1.55;;;;;;;25.16;48.12;99758.34;4464755;32;33432;-75
2022/07/05 02:44:08;;;;;;;3.10;1.60;;;;;;;24.89;48.98;99756.06;4462633;32;33997;-76
2022/07/05 02:46:37;;;;;;;3.72;1.85;;;;;;;24.99;48.83;99769.19;4461471;32;32471;-78
2022/07/05 02:49:04;;;;;;;3.60;1.80;;;;;;;24.90;49.00;99757.81;4463277;32;33806;-78
2022/07/05 02:51:32;;;;;;;4.37;1.30;;;;;;;24.96;48.91;99763.94;4460125;32;33581;-76
2022/07/05 02:54:00;;;;;;;3.25;1.60;;;;;;;25.88;47.02;99754.47;4446217;32;36458;-78
2022/07/05 02:56:28;;;;;;;4.20;1.77;;;;;;;25.69;47.54;99744.22;4442697;32;33564;-75
2022/07/05 02:58:56;;;;;;;3.45;1.60;;;;;;;24.86;50.45;99748.19;4459218;32;34585;-76
2022/07/05 03:01:24;;;;;;;2.58;1.40;;;;;;;25.05;50.20;99745.22;4437044;32;33418;-77
2022/07/05 03:03:59;;;;;;;2.62;1.60;;;;;;;24.48;51.91;99738.94;4460759;32;33601;-78
2022/07/05 03:06:27;;;;;;;3.33;1.55;;;;;;;24.46;52.42;99740.72;4465492;32;33904;-78
2022/07/05 03:08:55;;;;;;;3.85;1.55;;;;;;;24.77;51.85;99740.34;4459918;32;33969;-78
2022/07/05 03:11:23;;;;;;;3.55;1.75;;;;;;;25.81;49.74;99740.47;4463702;32;33521;-76
2022/07/05 03:13:51;;;;;;;3.22;1.65;;;;;;;25.42;51.25;99740.25;4464836;32;34547;-76
2022/07/05 03:16:19;;;;;;;3.33;1.73;;;;;;;24.79;52.77;99743.00;4461611;32;33965;-76
2022/07/05 03:18:47;;;;;;;3.20;1.75;;;;;;;24.92;52.35;99744.56;4464192;32;33923;-78
2022/07/05 03:21:15;;;;;;;4.55;1.90;;;;;;;25.39;51.12;99734.13;4454978;32;33324;-78
2022/07/05 03:23:42;;;;;;;3.80;1.80;;;;;;;25.48;51.15;99728.69;4456613;32;34112;-78
2022/07/05 03:26:10;;;;;;;5.45;1.80;;;;;;;25.02;52.44;99740.88;4456700;32;34554;-77
2022/07/05 03:28:38;;;;;;;3.70;1.80;;;;;;;25.00;52.78;99744.44;4457675;32;33619;-78
2022/07/05 03:31:05;;;;;;;5.47;2.10;;;;;;;24.75;53.52;99747.44;4444922;32;33360;-79
2022/07/05 03:33:35;;;;;;;5.47;1.83;;;;;;;24.44;54.73;99757.53;4462311;32;36534;-75
2022/07/05 03:36:03;;;;;;;3.92;2.10;;;;;;;24.27;55.44;99769.19;4461670;32;34847;-75
2022/07/05 03:38:31;;;;;;;6.22;1.90;;;;;;;24.36;55.47;99769.97;4440017;32;32377;-76
2022/07/05 03:40:59;;;;;;;2.67;1.60;;;;;;;24.17;56.58;99782.56;4450098;32;32852;-79
2022/07/05 03:43:27;;;;;;;3.85;1.83;;;;;;;24.42;56.47;99778.75;4467056;32;34629;-78
2022/07/05 03:45:55;;;;;;;3.75;2.05;;;;;;;24.56;56.42;99777.72;4465328;32;34538;-80
2022/07/05 03:48:24;;;;;;;3.80;1.98;;;;;;;24.58;56.46;99782.09;4454611;32;33906;-78
2022/07/05 03:51:08;;;;;;;3.47;1.90;;;;;;;24.91;55.63;99788.72;4437652;32;33178;-76
2022/07/05 03:53:36;;;;;;;4.30;2.20;;;;;;;24.50;56.38;99795.41;4460993;32;33590;-76
2022/07/05 03:56:04;;;;;;;4.40;1.92;;;;;;;23.83;58.61;99804.06;4466289;32;34789;-78
2022/07/05 03:58:32;;;;;;;4.72;2.20;;;;;;;24.48;56.84;99796.31;4444430;32;32326;-79
2022/07/05 04:01:00;;;;;;;4.35;1.90;;;;;;;25.22;54.94;99806.84;4452739;32;33354;-80
2022/07/05 04:03:28;;;;;;;4.57;2.00;;;;;;;24.55;56.48;99807.75;4466223;32;34294;-79
2022/07/05 04:05:56;;;;;;;4.55;2.30;;;;;;;24.47;56.91;99813.09;4464905;32;33920;-78
2022/07/05 04:08:24;;;;;;;5.10;2.15;;;;;;;25.09;54.96;99823.78;4462567;32;33497;-78
2022/07/05 04:10:52;;;;;;;3.37;2.08;;;;;;;24.32;57.69;99816.81;4460442;32;34264;-78
2022/07/05 04:13:20;;;;;;;5.30;1.90;;;;;;;25.40;54.39;99815.41;4456648;32;33775;-77
2022/07/05 04:15:49;;;;;;;3.67;2.10;;;;;;;25.67;52.79;99807.03;4457858;32;33971;-76
2022/07/05 04:18:17;;;;;;;3.70;1.77;;;;;;;25.65;52.39;99806.19;4459117;32;33928;-75
2022/07/05 04:20:46;;;;;;;3.50;1.80;;;;;;;25.79;51.96;99802.41;4463511;32;33986;-74
2022/07/05 04:23:14;;;;;;;3.37;1.58;;;;;;;25.52;52.33;99807.28;4459397;32;33442;-81
2022/07/05 04:25:42;;;;;;;3.50;1.80;;;;;;;25.94;50.67;99801.28;4443807;32;33781;-78
2022/07/05 04:28:10;;;;;;;7.60;2.17;;;;;;;26.16;50.31;99801.78;4460779;32;34638;-77
2022/07/05 04:30:38;;;;;;;3.30;1.80;;;;;;;26.02;50.37;99800.25;4445379;32;34072;-79
2022/07/05 04:33:06;;;;;;;3.42;1.85;;;;;;;26.26;49.35;99792.72;4459371;32;33778;-79
2022/07/05 04:35:33;;;;;;;3.22;1.75;;;;;;;26.48;48.72;99794.03;4448709;32;32435;-79
2022/07/05 04:38:01;;;;;;;3.33;1.92;;;;;;;26.98;47.44;99785.91;4458740;32;33975;-78
2022/07/05 04:40:29;;;;;;;4.47;1.80;;;;;;;26.80;47.80;99787.19;4445860;32;31870;-79
2022/07/05 04:42:57;;;;;;;3.28;1.90;;;;;;;27.09;47.35;99784.81;4457394;32;33667;-77
2022/07/05 04:45:24;;;;;;;3.83;2.17;;;;;;;25.90;50.50;99796.03;4461300;32;33890;-75
2022/07/05 04:47:52;;;;;;;3.08;1.75;;;;;;;25.46;52.20;99795.00;4460427;32;34394;-80
2022/07/05 04:50:21;;;;;;;4.40;2.08;;;;;;;26.15;50.08;99786.75;4464609;32;32913;-78
2022/07/05 04:52:48;;;;;;;5.55;1.80;;;;;;;26.34;49.54;99787.25;4450226;32;34709;-79
2022/07/05 04:55:16;;;;;;;5.50;2.00;;;;;;;26.34;49.57;99785.47;4461783;32;34883;-78
2022/07/05 04:57:44;;;;;;;3.58;1.67;;;;;;;26.15;49.64;99778.78;4459254;32;33641;-80
2022/07/05 05:00:13;;;;;;;3.80;1.70;;;;;;;26.30;49.30;99789.09;4458538;32;33349;-76
2022/07/05 05:02:41;;;;;;;2.45;1.70;;;;;;;26.15;49.63;99789.41;4444749;32;33664;-78
2022/07/05 05:05:08;;;;;;;3.50;1.80;;;;;;;25.98;49.50;99774.69;4459062;32;33868;-79
2022/07/05 05:07:38;;;;;;;2.87;1.70;;;;;;;25.78;50.12;99774.13;4461839;32;33894;-77
2022/07/05 05:10:07;;;;;;;2.42;1.25;;;;;;;25.85;49.69;99770.47;4456919;32;33416;-77
2022/07/05 05:12:34;;;;;;;4.20;1.65;;;;;;;25.90;49.06;99769.47;4458453;32;33764;-75
2022/07/05 05:15:02;;;;;;;2.42;1.33;;;;;;;26.05;49.21;99773.63;4462802;32;34085;-79
2022/07/05 05:17:38;;;;;;;4.20;1.55;;;;;;;25.91;49.06;99767.72;4462826;32;33984;-78
2022/07/05 05:20:10;;;;;;;4.68;1.52;;;;;;;25.91;48.98;99762.41;4461515;32;34111;-80
2022/07/05 05:22:38;;;;;;;3.75;1.55;;;;;;;25.97;48.91;99764.94;4460800;32;33977;-78
2022/07/05 05:25:06;;;;;;;3.40;1.60;;;;;;;26.39;48.18;99762.34;4458165;32;33914;-74
2022/07/05 05:27:33;;;;;;;4.37;1.62;;;;;;;26.55;47.88;99767.34;4458702;32;33830;-75
2022/07/05 05:30:02;;;;;;;3.80;1.70;;;;;;;26.44;47.28;99770.22;4458583;32;33832;-78
2022/07/05 05:32:29;;;;;;;3.60;1.62;;;;;;;25.58;49.51;99774.47;4456767;32;34397;-76
2022/07/05 05:34:57;;;;;;;4.75;1.62;;;;;;;25.64;49.89;99767.28;4455571;32;33667;-76
2022/07/05 05:37:24;;;;;;;4.87;1.73;;;;;;;26.22;48.72;99777.75;4449168;32;33501;-78
2022/07/05 05:39:52;;;;;;;3.50;1.77;;;;;;;25.42;50.58;99776.50;4462138;32;33183;-79
2022/07/05 05:42:19;;;;;;;7.50;1.83;;;;;;;25.08;52.02;99777.00;4462404;32;32585;-77
2022/07/05 05:44:47;;;;;;;3.35;1.55;;;;;;;25.77;49.31;99782.97;4462534;32;33999;-78
2022/07/05 05:47:15;;;;;;;3.10;1.40;;;;;;;25.88;49.04;99773.94;4447597;32;34607;-75
2022/07/05 05:49:43;;;;;;;2.45;1.20;;;;;;;25.90;48.93;99780.09;4464884;32;34146;-80
2022/07/05 05:52:12;;;;;;;6.70;1.62;;;;;;;25.81;49.04;99787.34;4463156;32;32671;-75
2022/07/05 05:54:39;;;;;;;3.83;1.52;;;;;;;25.93;48.68;99795.09;4463372;32;34693;-76
2022/07/05 05:57:07;;;;;;;2.85;1.40;;;;;;;25.87;49.96;99795.19;4457611;32;33934;-80
2022/07/05 05:59:35;;;;;;;2.85;1.60;;;;;;;25.86;49.02;99793.44;4459022;32;34235;-74
2022/07/05 06:02:03;;;;;;;3.92;1.80;;;;;;;25.97;49.01;99807.41;4461989;32;34382;-78
2022/07/05 06:04:31;;;;;;;3.62;1.30;;;;;;;25.93;49.00;99811.03;4447281;32;32310;-79
2022/07/05 06:06:59;;;;;;;3.25;1.50;;;;;;;25.88;49.01;99820.81;4464248;32;34597;-80
2022/07/05 06:09:26;;;;;;;3.72;1.80;;;;;;;25.84;49.69;99813.81;4460540;32;34103;-77
2022/07/05 06:11:54;;;;;;;3.10;1.40;;;;;;;25.91;49.13;99804.88;4466086;32;33295;-77
2022/07/05 06:14:21;;;;;;;4.05;1.73;;;;;;;25.70;49.89;99809.63;4442994;32;33790;-81
2022/07/05 06:16:49;;;;;;;3.78;1.50;;;;;;;26.00;49.67;99811.78;4463558;32;32348;-78
2022/07/05 06:19:17;;;;;;;7.70;1.65;;;;;;;25.84;49.69;99808.50;4459906;32;33515;-76
2022/07/05 06:21:44;;;;;;;3.45;1.60;;;;;;;25.65;50.58;99811.50;4461849;32;34730;-76
2022/07/05 06:24:11;;;;;;;2.53;1.60;;;;;;;25.56;50.43;99806.34;4461635;32;34702;-78
2022/07/05 06:26:39;;;;;;;3.92;1.67;;;;;;;25.40;51.21;99804.81;4467233;32;34560;-78
2022/07/05 06:29:07;;;;;;;4.50;1.60;;;;;;;25.83;50.07;99801.47;4464978;32;33201;-80
2022/07/05 06:31:34;;;;;;;3.60;1.80;;;;;;;25.72;50.30;99814.03;4461194;32;34020;-77
2022/07/05 06:34:02;;;;;;;3.87;1.40;;;;;;;26.20;49.62;99798.16;4462876;32;34693;-77
2022/07/05 06:36:29;;;;;;;3.67;1.48;;;;;;;26.17;49.61;99799.06;4463523;32;33460;-79
2022/07/05 06:38:57;;;;;;;2.28;1.30;;;;;;;26.35;49.82;99803.16;4443053;32;31777;-76
2022/07/05 06:41:24;;;;;;;3.53;1.35;;;;;;;25.94;49.32;99802.19;4463338;32;32838;-74
2022/07/05 06:43:52;;;;;;;2.10;1.10;;;;;;;25.78;49.34;99800.66;4463818;32;34520;-76
2022/07/05 06:46:20;;;;;;;3.17;1.70;;;;;;;25.63;50.35;99797.38;4458322;32;33795;-76
2022/07/05 06:48:48;;;;;;;3.53;1.37;;;;;;;25.72;50.15;99792.81;4458963;32;33446;-77
2022/07/05 06:51:20;;;;;;;3.65;1.12;;;;;;;25.82;50.30;99800.56;4448310;32;32302;-76
2022/07/05 06:53:48;;;;;;;2.62;1.30;;;;;;;26.17;49.43;99784.94;4447998;32;34378;-73
2022/07/05 06:56:32;;;;;;;2.22;1.40;;;;;;;26.03;49.56;99783.41;4462265;32;33955;-77
2022/07/05 06:59:15;;;;;;;4.37;1.30;;;;;;;26.19;49.56;99777.81;4460889;32;33257;-79
2022/07/05 07:02:03;;;;;;;3.00;1.35;;;;;;;26.05;49.96;99781.59;4458623;32;33140;-77
2022/07/05 07:04:50;;;;;;;1.92;1.00;;;;;;;26.15;48.97;99784.94;4460796;32;33697;-74
2022/07/05 07:10:22;;;;;;;3.25;1.00;;;;;;;26.79;47.85;99777.50;4458272;32;33900;-75
2022/07/05 07:12:59;;;;;;;4.18;1.60;;;;;;;26.75;47.18;99781.09;4453993;32;34571;-74
2022/07/05 07:15:29;;;;;;;3.17;1.17;;;;;;;26.59;47.90;99779.69;4460282;32;33739;-75
2022/07/05 07:17:57;;;;;;;4.07;1.30;;;;;;;26.19;48.45;99775.16;4444881;32;33178;-75
2022/07/05 07:20:25;;;;;;;7.05;1.35;;;;;;;26.01;48.43;99779.03;4458709;32;34035;-75
2022/07/05 07:22:52;;;;;;;2.78;1.20;;;;;;;25.98;47.96;99766.72;4449671;32;33653;-76
2022/07/05 07:25:23;;;;;;;2.22;1.12;;;;;;;25.86;48.53;99783.72;4459401;32;33996;-77
2022/07/05 07:27:52;;;;;;;3.15;1.10;;;;;;;25.65;49.13;99778.75;4446143;32;34575;-74
2022/07/05 07:30:29;;;;;;;4.57;0.90;;;;;;;25.62;48.62;99777.03;4458461;32;33374;-76
2022/07/05 07:32:57;;;;;;;2.83;1.08;;;;;;;25.69;49.33;99773.41;4461835;32;34031;-73
2022/07/05 07:35:24;;;;;;;2.92;1.20;;;;;;;25.84;49.30;99774.00;4455300;32;35332;-75
2022/07/05 07:37:52;;;;;;;2.75;1.20;;;;;;;25.79;49.83;99781.19;4458787;32;33982;-78
2022/07/05 07:40:20;;;;;;;4.25;1.80;;;;;;;25.80;50.14;99761.69;4464500;32;33411;-75
2022/07/05 07:42:47;;;;;;;3.28;1.75;;;;;;;25.42;51.08;99760.59;4455290;32;33736;-75
2022/07/05 07:45:15;;;;;;;3.33;1.50;;;;;;;25.38;51.13;99762.44;4459498;32;33918;-76
2022/07/05 07:47:42;;;;;;;4.80;1.92;;;;;;;26.13;50.33;99773.50;4462024;32;33747;-76
2022/07/05 07:50:10;;;;;;;4.55;1.30;;;;;;;26.17;49.79;99771.66;4465468;32;33841;-75
2022/07/05 07:52:38;;;;;;;2.83;1.50;;;;;;;26.13;50.03;99780.59;4461883;32;33785;-76
2022/07/05 07:55:06;;;;;;;3.92;1.33;;;;;;;25.12;52.92;99773.41;4461028;32;33988;-76
2022/07/05 07:57:33;;;;;;;2.33;1.10;;;;;;;25.12;53.29;99778.69;4459772;32;33882;-77
2022/07/05 08:00:02;;;;;;;3.67;1.20;;;;;;;25.65;52.51;99769.03;4453092;32;34281;-77
2022/07/05 08:02:37;;;;;;;2.17;1.15;;;;;;;26.16;49.95;99777.88;4463189;32;34289;-75
2022/07/05 08:05:09;;;;;;;3.95;1.37;;;;;;;25.38;52.04;99769.50;4437349;32;32291;-75
2022/07/05 08:07:36;;;;;;;4.75;1.23;;;;;;;26.12;51.05;99784.16;4463073;32;34060;-78
2022/07/05 08:10:05;;;;;;;3.80;1.60;;;;;;;25.72;51.56;99779.53;4455785;32;33715;-77
2022/07/05 08:12:32;;;;;;;3.53;1.50;;;;;;;25.89;51.11;99788.06;4454776;32;33967;-76
2022/07/05 08:15:00;;;;;;;1.62;1.20;;;;;;;25.46;52.89;99788.81;4463385;32;34466;-75
2022/07/05 08:17:27;;;;;;;5.15;1.60;;;;;;;25.42;53.13;99787.09;4463893;32;33813;-76
2022/07/05 08:22:41;;;;;;;3.75;1.60;;;;;;;25.87;52.85;99784.56;4460031;32;34088;-74
2022/07/05 08:25:09;;;;;;;2.97;1.58;;;;;;;25.77;52.70;99790.94;4459290;32;33597;-76
2022/07/05 08:27:37;;;;;;;4.82;1.58;;;;;;;25.00;55.27;99800.97;4440347;32;33801;-75
2022/07/05 08:30:05;;;;;;;5.75;1.48;;;;;;;25.54;53.72;99801.97;4460213;32;33612;-76
2022/07/05 08:32:33;;;;;;;4.30;1.60;;;;;;;26.12;53.06;99806.25;4467730;32;33831;-75
2022/07/05 08:35:00;;;;;;;5.90;1.70;;;;;;;26.30;51.81;99794.41;4460061;32;33800;-76
2022/07/05 08:37:28;;;;;;;4.90;1.60;;;;;;;26.52;51.16;99804.59;4451756;32;31891;-76
2022/07/05 08:39:55;;;;;;;2.80;1.58;;;;;;;26.67;51.71;99804.31;4470254;32;33053;-75
2022/07/05 08:42:23;;;;;;;3.22;1.55;;;;;;;26.54;51.47;99802.78;4458675;32;33536;-75
2022/07/05 08:44:50;;;;;;;3.45;1.83;;;;;;;26.43;51.33;99811.84;4459270;32;33615;-74
2022/07/05 08:47:19;;;;;;;4.30;1.75;;;;;;;26.68;51.00;99806.06;4454415;32;33780;-76
2022/07/05 08:49:47;;;;;;;8.15;1.30;;;;;;;26.12;52.59;99808.06;4439573;32;31721;-76
2022/07/05 08:52:15;;;;;;;3.22;1.40;;;;;;;26.25;51.94;99801.56;4449147;32;33692;-77
2022/07/05 08:54:43;;;;;;;5.15;1.85;;;;;;;25.98;51.99;99805.63;4456064;32;34599;-75
2022/07/05 08:57:11;;;;;;;3.58;1.30;;;;;;;25.28;54.13;99817.37;4447840;32;34547;-76
2022/07/05 08:59:41;;;;;;;3.62;1.75;;;;;;;25.44;53.63;99814.47;4460272;32;33155;-76
2022/07/05 09:02:12;;;;;;;3.70;1.50;;;;;;;25.22;54.39;99812.16;4460133;32;34499;-76
2022/07/05 09:04:44;;;;;;;5.25;1.90;;;;;;;25.09;55.06;99815.84;4458209;32;32110;-77
2022/07/05 09:07:16;;;;;;;3.08;1.50;;;;;;;25.06;55.26;99832.66;4460411;32;34120;-75
2022/07/05 09:09:47;;;;;;;6.37;1.90;;;;;;;24.75;55.74;99826.06;4459174;32;32494;-76
2022/07/05 09:12:15;;;;;;;4.43;1.90;;;;;;;24.46;57.74;99814.88;4458056;32;34160;-76
2022/07/05 09:14:50;;;;;;;5.28;1.80;;;;;;;24.58;56.95;99813.88;4465119;32;34466;-76
2022/07/05 09:17:18;;;;;;;4.22;1.50;;;;;;;24.55;57.65;99805.09;4450626;32;34003;-75
2022/07/05 09:20:08;;;;;;;3.37;1.60;;;;;;;24.35;58.09;99806.16;4466830;32;34077;-74
2022/07/05 09:22:46;;;;;;;4.18;1.80;;;;;;;24.52;57.91;99809.53;4461531;32;33832;-77
2022/07/05 09:25:18;;;;;;;3.97;1.73;;;;;;;24.79;57.13;99806.56;4459668;32;33891;-76
2022/07/05 09:27:56;;;;;;;4.75;1.77;;;;;;;24.69;57.57;99805.81;4462591;32;33727;-75
2022/07/05 09:30:35;;;;;;;3.33;1.52;;;;;;;24.87;57.04;99821.44;4445834;32;34130;-75
2022/07/05 09:33:15;;;;;;;5.50;1.77;;;;;;;24.95;56.98;99817.81;4462075;32;33586;-75
2022/07/05 09:35:43;;;;;;;3.92;2.00;;;;;;;24.58;58.16;99810.34;4461650;32;33652;-76
2022/07/05 09:38:19;;;;;;;5.32;2.00;;;;;;;24.82;57.74;99820.66;4441598;32;34665;-78
2022/07/05 09:40:51;;;;;;;4.10;2.22;;;;;;;24.70;58.32;99807.53;4462235;32;34086;-79
2022/07/05 09:43:25;;;;;;;4.32;1.70;;;;;;;24.80;58.36;99806.56;4459094;32;33867;-74
2022/07/05 09:45:53;;;;;;;3.72;1.70;;;;;;;24.89;57.88;99809.06;4460443;32;32457;-76
2022/07/05 09:48:22;;;;;;;6.15;2.33;;;;;;;24.23;59.80;99806.31;4456203;32;33185;-77
2022/07/05 09:51:24;;;;;;;6.50;1.98;;;;;;;23.77;61.49;99828.78;4459617;32;33429;-75
2022/07/05 09:54:12;;;;;;;6.25;2.10;;;;;;;23.50;62.19;99845.72;4446139;32;33368;-77
2022/07/05 09:56:47;;;;;;;11.90;3.20;;;;;;;23.32;63.97;99868.75;4459102;32;34878;-76
2022/07/05 09:59:18;;;;;;;7.85;2.80;;;;;;;23.41;67.84;99882.81;4440697;32;34116;-78
2022/07/05 10:01:45;;;;;;;6.47;2.30;;;;;;;23.28;70.09;99872.31;4459459;32;33135;-78
2022/07/05 10:04:13;;;;;;;6.55;2.60;;;;;;;22.92;71.15;99868.94;4463311;32;34754;-77
2022/07/05 10:06:42;;;;;;;11.07;3.55;;;;;;;22.22;76.79;99874.41;4458950;32;33687;-78
2022/07/05 10:09:10;;;;;;;8.25;3.05;;;;;;;22.24;77.83;99893.75;4455965;32;34539;-78
2022/07/05 10:11:40;;;;;;;7.75;3.50;;;;;;;22.06;78.96;99900.81;4445764;32;33431;-78
2022/07/05 10:14:17;;;;;;;7.87;3.30;;;;;;;21.91;79.55;99891.12;4465208;32;34064;-79
2022/07/05 10:16:48;;;;;;;5.93;2.90;;;;;;;21.82;81.02;99884.97;4460702;32;33638;-75
2022/07/05 10:19:20;;;;;;;5.15;3.00;;;;;;;21.75;81.88;99900.81;4446680;32;33595;-77
2022/07/05 10:21:49;;;;;;;6.15;3.10;;;;;;;21.66;81.70;99892.88;4464492;32;34229;-77
2022/07/05 10:24:37;;;;;;;5.20;2.87;;;;;;;21.86;80.71;99897.28;4460076;32;34024;-77
2022/07/05 10:27:07;;;;;;;7.25;3.72;;;;;;;21.88;79.67;99908.72;4443744;32;33959;-75
2022/07/05 10:29:35;;;;;;;7.40;4.00;;;;;;;21.94;80.60;99906.06;4444195;32;32269;-80
2022/07/05 10:32:03;;;;;;;6.15;2.90;;;;;;;22.03;79.96;99906.06;4441682;32;34263;-74
2022/07/05 10:34:33;;;;;;;6.03;3.10;;;;;;;21.94;80.46;99898.16;4458417;32;33507;-73
2022/07/05 10:37:23;;;;;;;7.10;3.50;;;;;;;21.99;79.49;99893.78;4455953;32;33975;-77
2022/07/05 10:39:50;;;;;;;7.18;3.00;;;;;;;22.30;78.23;99904.34;4447976;32;32839;-76
2022/07/05 10:42:18;;;;;;;7.15;3.60;;;;;;;22.10;78.74;99915.75;4439763;32;31846;-74
2022/07/05 10:44:46;;;;;;;7.70;3.20;;;;;;;22.37;77.25;99916.66;4446101;32;34709;-76
2022/07/05 10:47:14;;;;;;;4.37;3.10;;;;;;;22.46;76.13;99899.91;4452596;32;34709;-77
2022/07/05 10:49:42;;;;;;;6.07;3.35;;;;;;;22.34;76.50;99911.38;4444514;32;34013;-76
2022/07/05 10:52:25;;;;;;;5.97;3.30;;;;;;;22.18;77.27;99913.97;4448965;32;33956;-76
2022/07/05 10:55:18;;;;;;;5.50;3.55;;;;;;;22.31;76.41;99903.44;4464032;32;34642;-76
2022/07/05 10:58:19;;;;;;;4.90;3.28;;;;;;;22.31;77.23;99906.97;4457145;32;33527;-76
2022/07/05 11:00:52;;;;;;;8.65;3.92;;;;;;;22.37;77.92;99917.53;4455440;32;33971;-75
2022/07/05 11:03:55;;;;;;;6.15;4.00;;;;;;;22.12;79.25;99921.91;4460760;32;33258;-75
2022/07/05 11:06:26;;;;;;;5.87;3.97;;;;;;;21.87;79.94;99933.34;4432318;32;33841;-76
2022/07/05 11:08:57;;;;;;;7.10;3.83;;;;;;;21.80;80.45;99938.56;4448256;32;32339;-76
2022/07/05 11:11:34;;;;;;;5.62;3.72;;;;;;;22.05;78.64;99935.97;4464343;32;33849;-76
2022/07/05 11:14:29;;;;;;;6.18;3.95;;;;;;;22.15;77.53;99945.63;4457273;32;33347;-75
2022/07/05 11:17:15;;;;;;;6.60;4.10;;;;;;;22.29;78.11;99950.06;4439803;32;32389;-75
2022/07/05 11:20:13;;;;;;;5.35;3.78;;;;;;;22.29;78.41;99944.78;4454290;32;32259;-76
2022/07/05 11:23:01;;;;;;;6.10;3.47;;;;;;;22.59;76.75;99938.59;4451289;32;177104;-75
2022/07/05 11:25:30;;;;;;;6.20;3.03;;;;;;;22.56;77.19;99944.75;4454153;32;33332;-75
2022/07/05 11:28:06;;;;;;;6.18;3.20;;;;;;;22.74;76.30;99932.41;4445540;32;34434;-76
2022/07/05 11:30:53;;;;;;;5.60;3.10;;;;;;;23.01;74.90;99917.34;4457447;32;32901;-76
2022/07/05 11:33:29;;;;;;;5.00;2.70;;;;;;;23.20;74.00;99908.50;4458449;32;34574;-76
2022/07/05 11:35:57;;;;;;;5.50;2.90;;;;;;;22.92;74.96;99895.34;4453988;32;33481;-76
2022/07/05 11:38:25;;;;;;;4.45;2.67;;;;;;;22.75;75.15;99895.44;4461193;32;33742;-76
2022/07/05 11:41:13;;;;;;;5.15;3.00;;;;;;;22.88;73.64;99898.88;4456400;32;34108;-76
2022/07/05 11:43:42;;;;;;;5.62;3.22;;;;;;;22.89;74.79;99890.09;4455229;32;33895;-77
2022/07/05 11:46:10;;;;;;;5.55;3.33;;;;;;;22.64;75.68;99883.12;4442010;32;33545;-76
2022/07/05 11:49:00;;;;;;;5.55;3.20;;;;;;;22.65;75.39;99900.75;4454013;32;33895;-75
2022/07/05 11:51:27;;;;;;;5.22;3.53;;;;;;;22.78;75.16;99902.47;4456960;32;33686;-76
2022/07/05 11:53:55;;;;;;;5.65;3.53;;;;;;;23.10;75.13;99901.47;4458951;32;33836;-75